sensor_id;sensor_type;location;lat;lon;timestamp;pressure;altitude;pressure_sealevel;temperature;humidity
12247;BME280;6186;52.022;4.692;2023-06-14T00:01:47;101557.19;;;21.26;36.28
12247;BME280;6186;52.022;4.692;2023-06-14T00:04:12;101560.06;;;21.23;36.74
12247;BME280;6186;52.022;4.692;2023-06-14T00:06:37;101556.75;;;21.18;36.47
12247;BME280;6186;52.022;4.692;2023-06-14T00:09:03;101564.09;;;21.14;36.67
12247;BME280;6186;52.022;4.692;2023-06-14T00:11:28;101549.16;;;21.10;36.51
12247;BME280;6186;52.022;4.692;2023-06-14T00:13:53;101549.44;;;21.06;36.67
12247;BME280;6186;52.022;4.692;2023-06-14T00:16:19;101554.19;;;21.01;36.73
12247;BME280;6186;52.022;4.692;2023-06-14T00:18:44;101551.56;;;20.99;36.70
12247;BME280;6186;52.022;4.692;2023-06-14T00:21:10;101557.00;;;20.98;36.82
12247;BME280;6186;52.022;4.692;2023-06-14T00:23:35;101556.41;;;20.93;36.93
12247;BME280;6186;52.022;4.692;2023-06-14T00:26:00;101554.94;;;20.87;36.84
12247;BME280;6186;52.022;4.692;2023-06-14T00:28:25;101566.50;;;20.88;37.19
12247;BME280;6186;52.022;4.692;2023-06-14T00:30:51;101557.88;;;20.83;37.20
12247;BME280;6186;52.022;4.692;2023-06-14T00:33:16;101566.88;;;20.82;37.24
12247;BME280;6186;52.022;4.692;2023-06-14T00:35:41;101558.06;;;20.80;37.23
12247;BME280;6186;52.022;4.692;2023-06-14T00:38:06;101564.63;;;20.74;37.06
12247;BME280;6186;52.022;4.692;2023-06-14T00:40:31;101566.50;;;20.72;37.15
12247;BME280;6186;52.022;4.692;2023-06-14T00:42:57;101562.19;;;20.70;37.16
12247;BME280;6186;52.022;4.692;2023-06-14T00:45:22;101564.09;;;20.68;37.27
12247;BME280;6186;52.022;4.692;2023-06-14T00:47:47;101557.94;;;20.66;37.43
12247;BME280;6186;52.022;4.692;2023-06-14T00:50:14;101550.44;;;20.56;37.38
12247;BME280;6186;52.022;4.692;2023-06-14T00:52:39;101561.75;;;20.61;37.29
12247;BME280;6186;52.022;4.692;2023-06-14T00:55:05;101562.69;;;20.60;37.32
12247;BME280;6186;52.022;4.692;2023-06-14T00:57:31;101553.34;;;20.52;37.36
12247;BME280;6186;52.022;4.692;2023-06-14T00:59:56;101561.28;;;20.53;37.57
12247;BME280;6186;52.022;4.692;2023-06-14T01:02:21;101553.63;;;20.47;37.47
12247;BME280;6186;52.022;4.692;2023-06-14T01:04:48;101555.66;;;20.42;37.56
12247;BME280;6186;52.022;4.692;2023-06-14T01:12:44;101556.88;;;20.37;37.67
12247;BME280;6186;52.022;4.692;2023-06-14T01:15:14;101555.31;;;20.33;37.68
12247;BME280;6186;52.022;4.692;2023-06-14T01:17:41;101542.19;;;20.28;37.67
12247;BME280;6186;52.022;4.692;2023-06-14T01:20:07;101554.53;;;20.31;37.82
12247;BME280;6186;52.022;4.692;2023-06-14T01:22:32;101556.41;;;20.29;37.82
12247;BME280;6186;52.022;4.692;2023-06-14T01:24:58;101553.03;;;20.25;37.76
12247;BME280;6186;52.022;4.692;2023-06-14T01:27:26;101546.06;;;20.23;37.73
12247;BME280;6186;52.022;4.692;2023-06-14T01:29:53;101553.38;;;20.19;37.88
12247;BME280;6186;52.022;4.692;2023-06-14T01:32:18;101552.56;;;20.17;37.87
12247;BME280;6186;52.022;4.692;2023-06-14T01:34:44;101552.72;;;20.14;37.76
12247;BME280;6186;52.022;4.692;2023-06-14T01:37:11;101545.81;;;20.10;38.00
12247;BME280;6186;52.022;4.692;2023-06-14T01:39:38;101552.03;;;20.11;37.99
12247;BME280;6186;52.022;4.692;2023-06-14T01:42:04;101554.94;;;20.06;38.02
12247;BME280;6186;52.022;4.692;2023-06-14T01:44:31;101550.63;;;20.04;38.06
12247;BME280;6186;52.022;4.692;2023-06-14T01:46:56;101554.31;;;20.01;38.06
12247;BME280;6186;52.022;4.692;2023-06-14T01:49:22;101560.75;;;19.97;38.06
12247;BME280;6186;52.022;4.692;2023-06-14T01:51:47;101554.72;;;19.94;38.10
12247;BME280;6186;52.022;4.692;2023-06-14T01:54:12;101557.47;;;19.92;38.29
12247;BME280;6186;52.022;4.692;2023-06-14T01:56:38;101552.38;;;19.88;38.21
12247;BME280;6186;52.022;4.692;2023-06-14T01:59:03;101547.91;;;19.88;38.23
12247;BME280;6186;52.022;4.692;2023-06-14T02:01:28;101548.81;;;19.87;38.27
12247;BME280;6186;52.022;4.692;2023-06-14T02:03:54;101551.66;;;19.84;38.30
12247;BME280;6186;52.022;4.692;2023-06-14T02:06:19;101547.28;;;19.83;38.25
12247;BME280;6186;52.022;4.692;2023-06-14T02:08:44;101540.50;;;19.76;38.39
12247;BME280;6186;52.022;4.692;2023-06-14T02:11:09;101545.84;;;19.76;38.31
12247;BME280;6186;52.022;4.692;2023-06-14T02:13:34;101543.44;;;19.72;38.33
12247;BME280;6186;52.022;4.692;2023-06-14T02:16:00;101544.44;;;19.69;38.34
12247;BME280;6186;52.022;4.692;2023-06-14T02:18:25;101547.22;;;19.67;38.42
12247;BME280;6186;52.022;4.692;2023-06-14T02:20:51;101549.88;;;19.67;38.36
12247;BME280;6186;52.022;4.692;2023-06-14T02:23:16;101549.16;;;19.64;38.42
12247;BME280;6186;52.022;4.692;2023-06-14T02:25:41;101557.31;;;19.61;38.44
12247;BME280;6186;52.022;4.692;2023-06-14T02:28:06;101554.91;;;19.56;38.51
12247;BME280;6186;52.022;4.692;2023-06-14T02:30:32;101547.03;;;19.53;38.52
12247;BME280;6186;52.022;4.692;2023-06-14T02:32:57;101553.31;;;19.52;38.35
12247;BME280;6186;52.022;4.692;2023-06-14T02:35:22;101557.97;;;19.49;38.47
12247;BME280;6186;52.022;4.692;2023-06-14T02:37:48;101550.88;;;19.48;38.54
12247;BME280;6186;52.022;4.692;2023-06-14T02:40:13;101559.06;;;19.45;38.69
12247;BME280;6186;52.022;4.692;2023-06-14T02:42:38;101567.06;;;19.45;38.60
12247;BME280;6186;52.022;4.692;2023-06-14T02:45:04;101565.31;;;19.44;38.80
12247;BME280;6186;52.022;4.692;2023-06-14T02:47:29;101562.91;;;19.39;38.68
12247;BME280;6186;52.022;4.692;2023-06-14T02:49:55;101566.66;;;19.35;38.57
12247;BME280;6186;52.022;4.692;2023-06-14T02:52:20;101571.28;;;19.32;38.65
12247;BME280;6186;52.022;4.692;2023-06-14T02:54:45;101562.59;;;19.27;38.59
12247;BME280;6186;52.022;4.692;2023-06-14T02:57:10;101567.53;;;19.17;38.65
12247;BME280;6186;52.022;4.692;2023-06-14T02:59:35;101566.72;;;19.15;38.71
12247;BME280;6186;52.022;4.692;2023-06-14T03:02:01;101572.41;;;19.09;38.78
12247;BME280;6186;52.022;4.692;2023-06-14T03:04:26;101580.59;;;19.05;38.83
12247;BME280;6186;52.022;4.692;2023-06-14T03:06:52;101571.25;;;18.96;38.64
12247;BME280;6186;52.022;4.692;2023-06-14T03:09:17;101582.94;;;18.94;38.73
12247;BME280;6186;52.022;4.692;2023-06-14T03:11:42;101586.69;;;18.90;38.81
12247;BME280;6186;52.022;4.692;2023-06-14T03:14:08;101589.63;;;18.84;38.95
12247;BME280;6186;52.022;4.692;2023-06-14T03:16:34;101584.59;;;18.77;38.90
12247;BME280;6186;52.022;4.692;2023-06-14T03:18:59;101599.16;;;18.70;38.84
12247;BME280;6186;52.022;4.692;2023-06-14T03:21:25;101589.84;;;18.60;39.03
12247;BME280;6186;52.022;4.692;2023-06-14T03:23:51;101588.19;;;18.58;38.93
12247;BME280;6186;52.022;4.692;2023-06-14T03:26:16;101598.16;;;18.54;39.10
12247;BME280;6186;52.022;4.692;2023-06-14T03:28:42;101600.94;;;18.51;39.10
12247;BME280;6186;52.022;4.692;2023-06-14T03:31:07;101600.13;;;18.49;39.15
12247;BME280;6186;52.022;4.692;2023-06-14T03:33:32;101604.81;;;18.44;39.25
12247;BME280;6186;52.022;4.692;2023-06-14T03:35:58;101607.63;;;18.41;39.14
12247;BME280;6186;52.022;4.692;2023-06-14T03:38:23;101605.94;;;18.39;39.33
12247;BME280;6186;52.022;4.692;2023-06-14T03:40:48;101611.34;;;18.37;39.45
12247;BME280;6186;52.022;4.692;2023-06-14T03:43:14;101615.06;;;18.33;39.36
12247;BME280;6186;52.022;4.692;2023-06-14T03:45:39;101610.41;;;18.38;39.50
12247;BME280;6186;52.022;4.692;2023-06-14T03:48:04;101609.59;;;18.36;39.48
12247;BME280;6186;52.022;4.692;2023-06-14T03:50:29;101620.25;;;18.36;39.48
12247;BME280;6186;52.022;4.692;2023-06-14T03:52:55;101621.22;;;18.35;39.48
12247;BME280;6186;52.022;4.692;2023-06-14T03:55:20;101618.47;;;18.37;39.64
12247;BME280;6186;52.022;4.692;2023-06-14T03:57:45;101625.50;;;18.38;39.73
12247;BME280;6186;52.022;4.692;2023-06-14T04:00:11;101622.13;;;18.34;39.60
12247;BME280;6186;52.022;4.692;2023-06-14T04:02:36;101618.38;;;18.38;39.63
12247;BME280;6186;52.022;4.692;2023-06-14T04:05:02;101634.28;;;18.41;39.81
12247;BME280;6186;52.022;4.692;2023-06-14T04:07:28;101622.72;;;18.41;39.77
12247;BME280;6186;52.022;4.692;2023-06-14T04:09:53;101617.50;;;18.38;39.81
12247;BME280;6186;52.022;4.692;2023-06-14T04:12:19;101632.47;;;18.42;39.83
12247;BME280;6186;52.022;4.692;2023-06-14T04:14:44;101636.03;;;18.42;39.79
12247;BME280;6186;52.022;4.692;2023-06-14T04:17:09;101634.28;;;18.41;39.99
12247;BME280;6186;52.022;4.692;2023-06-14T04:19:34;101638.69;;;18.42;40.00
12247;BME280;6186;52.022;4.692;2023-06-14T04:22:00;101635.94;;;18.44;39.95
12247;BME280;6186;52.022;4.692;2023-06-14T04:24:25;101641.19;;;18.45;40.12
12247;BME280;6186;52.022;4.692;2023-06-14T04:26:50;101638.50;;;18.47;40.12
12247;BME280;6186;52.022;4.692;2023-06-14T04:29:16;101635.03;;;18.45;40.16
12247;BME280;6186;52.022;4.692;2023-06-14T04:31:42;101636.03;;;18.42;40.11
12247;BME280;6186;52.022;4.692;2023-06-14T04:34:07;101647.22;;;18.50;40.18
12247;BME280;6186;52.022;4.692;2023-06-14T04:36:34;101627.94;;;18.44;40.01
12247;BME280;6186;52.022;4.692;2023-06-14T04:38:59;101647.22;;;18.50;40.18
12247;BME280;6186;52.022;4.692;2023-06-14T04:41:24;101637.47;;;18.49;40.23
12247;BME280;6186;52.022;4.692;2023-06-14T04:43:49;101639.22;;;18.50;40.22
12247;BME280;6186;52.022;4.692;2023-06-14T04:46:15;101640.00;;;18.52;40.33
12247;BME280;6186;52.022;4.692;2023-06-14T04:48:41;101646.16;;;18.54;40.32
12247;BME280;6186;52.022;4.692;2023-06-14T04:51:07;101644.28;;;18.56;40.15
12247;BME280;6186;52.022;4.692;2023-06-14T04:53:32;101644.19;;;18.58;40.34
12247;BME280;6186;52.022;4.692;2023-06-14T04:55:58;101643.41;;;18.56;40.51
12247;BME280;6186;52.022;4.692;2023-06-14T04:58:23;101648.84;;;18.53;40.45
12247;BME280;6186;52.022;4.692;2023-06-14T05:00:48;101650.69;;;18.52;40.45
12247;BME280;6186;52.022;4.692;2023-06-14T05:03:13;101653.28;;;18.54;40.55
12247;BME280;6186;52.022;4.692;2023-06-14T05:05:41;101651.59;;;18.51;40.68
12247;BME280;6186;52.022;4.692;2023-06-14T05:08:07;101654.34;;;18.50;40.67
12247;BME280;6186;52.022;4.692;2023-06-14T05:10:33;101650.00;;;18.47;40.65
12247;BME280;6186;52.022;4.692;2023-06-14T05:12:58;101649.09;;;18.48;40.70
12247;BME280;6186;52.022;4.692;2023-06-14T05:15:23;101648.22;;;18.48;40.83
12247;BME280;6186;52.022;4.692;2023-06-14T05:17:48;101647.28;;;18.49;40.87
12247;BME280;6186;52.022;4.692;2023-06-14T05:20:14;101651.59;;;18.51;40.99
12247;BME280;6186;52.022;4.692;2023-06-14T05:22:39;101656.81;;;18.54;40.88
12247;BME280;6186;52.022;4.692;2023-06-14T05:25:04;101652.31;;;18.55;41.07
12247;BME280;6186;52.022;4.692;2023-06-14T05:27:30;101658.53;;;18.55;41.01
12247;BME280;6186;52.022;4.692;2023-06-14T05:29:55;101654.19;;;18.53;41.00
12247;BME280;6186;52.022;4.692;2023-06-14T05:32:20;101667.13;;;18.62;41.04
12247;BME280;6186;52.022;4.692;2023-06-14T05:34:45;101663.44;;;18.64;41.07
12247;BME280;6186;52.022;4.692;2023-06-14T05:37:10;101666.91;;;18.66;41.14
12247;BME280;6186;52.022;4.692;2023-06-14T05:39:36;101664.91;;;18.71;41.19
12247;BME280;6186;52.022;4.692;2023-06-14T05:42:01;101661.28;;;18.72;41.18
12247;BME280;6186;52.022;4.692;2023-06-14T05:44:26;101670.19;;;18.73;41.08
12247;BME280;6186;52.022;4.692;2023-06-14T05:46:51;101661.16;;;18.75;41.11
12247;BME280;6186;52.022;4.692;2023-06-14T05:49:17;101668.06;;;18.79;41.17
12247;BME280;6186;52.022;4.692;2023-06-14T05:51:42;101671.53;;;18.82;41.23
12247;BME280;6186;52.022;4.692;2023-06-14T05:54:07;101662.75;;;18.79;41.23
12247;BME280;6186;52.022;4.692;2023-06-14T05:56:32;101669.66;;;18.84;41.33
12247;BME280;6186;52.022;4.692;2023-06-14T05:58:57;101681.78;;;18.91;41.34
12247;BME280;6186;52.022;4.692;2023-06-14T06:01:23;101678.03;;;18.95;41.41
12247;BME280;6186;52.022;4.692;2023-06-14T06:03:48;101680.50;;;18.99;41.53
12247;BME280;6186;52.022;4.692;2023-06-14T06:06:13;101675.00;;;19.02;41.45
12247;BME280;6186;52.022;4.692;2023-06-14T06:08:39;101672.16;;;19.07;41.38
12247;BME280;6186;52.022;4.692;2023-06-14T06:11:04;101676.16;;;19.15;41.54
12247;BME280;6186;52.022;4.692;2023-06-14T06:13:29;101674.28;;;19.17;41.57
12247;BME280;6186;52.022;4.692;2023-06-14T06:15:55;101680.38;;;19.21;41.58
12247;BME280;6186;52.022;4.692;2023-06-14T06:18:20;101680.22;;;19.24;41.61
12247;BME280;6186;52.022;4.692;2023-06-14T06:20:45;101676.47;;;19.28;41.68
12247;BME280;6186;52.022;4.692;2023-06-14T06:23:10;101686.91;;;19.34;41.71
12247;BME280;6186;52.022;4.692;2023-06-14T06:25:36;101689.31;;;19.38;41.73
12247;BME280;6186;52.022;4.692;2023-06-14T06:28:01;101691.00;;;19.41;41.71
12247;BME280;6186;52.022;4.692;2023-06-14T06:30:26;101700.59;;;19.45;41.74
12247;BME280;6186;52.022;4.692;2023-06-14T06:32:51;101692.28;;;19.51;41.87
12247;BME280;6186;52.022;4.692;2023-06-14T06:35:17;101691.25;;;19.53;41.93
12247;BME280;6186;52.022;4.692;2023-06-14T06:37:42;101694.25;;;19.64;41.96
12247;BME280;6186;52.022;4.692;2023-06-14T06:40:08;101695.72;;;19.72;41.98
12247;BME280;6186;52.022;4.692;2023-06-14T06:42:33;101701.59;;;19.78;41.97
12247;BME280;6186;52.022;4.692;2023-06-14T06:44:58;101700.38;;;19.85;42.13
12247;BME280;6186;52.022;4.692;2023-06-14T06:47:23;101695.50;;;19.93;42.05
12247;BME280;6186;52.022;4.692;2023-06-14T06:49:49;101712.97;;;20.00;42.12
12247;BME280;6186;52.022;4.692;2023-06-14T06:52:14;101709.13;;;20.06;42.22
12247;BME280;6186;52.022;4.692;2023-06-14T06:54:39;101709.44;;;20.17;42.13
12247;BME280;6186;52.022;4.692;2023-06-14T06:57:05;101714.19;;;20.29;42.34
12247;BME280;6186;52.022;4.692;2023-06-14T06:59:30;101713.66;;;20.39;42.38
12247;BME280;6186;52.022;4.692;2023-06-14T07:01:55;101714.91;;;20.49;42.49
12247;BME280;6186;52.022;4.692;2023-06-14T07:04:21;101709.06;;;20.58;42.35
12247;BME280;6186;52.022;4.692;2023-06-14T07:06:46;101713.94;;;20.68;42.42
12247;BME280;6186;52.022;4.692;2023-06-14T07:09:11;101713.34;;;20.78;42.59
12247;BME280;6186;52.022;4.692;2023-06-14T07:11:37;101719.44;;;20.97;42.62
12247;BME280;6186;52.022;4.692;2023-06-14T07:14:02;101716.31;;;21.06;42.56
12247;BME280;6186;52.022;4.692;2023-06-14T07:16:27;101722.72;;;21.19;42.43
12247;BME280;6186;52.022;4.692;2023-06-14T07:18:52;101726.19;;;21.37;42.80
12247;BME280;6186;52.022;4.692;2023-06-14T07:21:18;101727.84;;;21.55;42.80
12247;BME280;6186;52.022;4.692;2023-06-14T07:23:43;101725.22;;;21.69;42.65
12247;BME280;6186;52.022;4.692;2023-06-14T07:26:08;101728.59;;;21.88;42.60
12247;BME280;6186;52.022;4.692;2023-06-14T07:28:34;101739.56;;;21.99;42.88
12247;BME280;6186;52.022;4.692;2023-06-14T07:30:59;101729.16;;;22.09;42.69
12247;BME280;6186;52.022;4.692;2023-06-14T07:33:24;101735.53;;;22.22;42.61
12247;BME280;6186;52.022;4.692;2023-06-14T07:35:49;101741.94;;;22.35;42.70
12247;BME280;6186;52.022;4.692;2023-06-14T07:38:15;101750.00;;;22.49;42.73
12247;BME280;6186;52.022;4.692;2023-06-14T07:40:40;101746.78;;;22.58;42.77
12247;BME280;6186;52.022;4.692;2023-06-14T07:43:05;101737.34;;;22.67;42.58
12247;BME280;6186;52.022;4.692;2023-06-14T07:45:30;101742.69;;;22.81;42.58
12247;BME280;6186;52.022;4.692;2023-06-14T07:47:55;101741.09;;;22.92;42.58
12247;BME280;6186;52.022;4.692;2023-06-14T07:50:21;101746.56;;;23.05;42.96
12247;BME280;6186;52.022;4.692;2023-06-14T07:52:46;101750.00;;;23.21;42.69
12247;BME280;6186;52.022;4.692;2023-06-14T07:55:11;101741.78;;;23.24;42.62
12247;BME280;6186;52.022;4.692;2023-06-14T07:57:36;101755.22;;;23.38;42.60
12247;BME280;6186;52.022;4.692;2023-06-14T08:00:02;101757.31;;;23.47;42.55
12247;BME280;6186;52.022;4.692;2023-06-14T08:02:28;101755.75;;;23.57;42.72
12247;BME280;6186;52.022;4.692;2023-06-14T08:04:53;101763.03;;;23.69;42.75
12247;BME280;6186;52.022;4.692;2023-06-14T08:07:18;101758.25;;;23.87;42.79
12247;BME280;6186;52.022;4.692;2023-06-14T08:09:43;101760.25;;;23.97;42.72
12247;BME280;6186;52.022;4.692;2023-06-14T08:12:09;101757.25;;;24.16;42.61
12247;BME280;6186;52.022;4.692;2023-06-14T08:14:34;101759.13;;;24.28;42.48
12247;BME280;6186;52.022;4.692;2023-06-14T08:16:59;101751.06;;;24.41;42.50
12247;BME280;6186;52.022;4.692;2023-06-14T08:19:24;101749.25;;;24.54;42.61
12247;BME280;6186;52.022;4.692;2023-06-14T08:21:50;101756.56;;;24.64;42.50
12247;BME280;6186;52.022;4.692;2023-06-14T08:24:15;101748.66;;;24.75;42.50
12247;BME280;6186;52.022;4.692;2023-06-14T08:26:40;101744.44;;;24.84;42.41
12247;BME280;6186;52.022;4.692;2023-06-14T08:29:06;101746.59;;;24.91;42.49
12247;BME280;6186;52.022;4.692;2023-06-14T08:31:31;101745.53;;;25.06;42.49
12247;BME280;6186;52.022;4.692;2023-06-14T08:33:56;101747.56;;;25.28;42.60
12247;BME280;6186;52.022;4.692;2023-06-14T08:36:21;101757.47;;;25.53;42.71
12247;BME280;6186;52.022;4.692;2023-06-14T08:38:46;101760.97;;;25.66;42.63
12247;BME280;6186;52.022;4.692;2023-06-14T08:41:16;101748.88;;;25.71;42.39
12247;BME280;6186;52.022;4.692;2023-06-14T08:43:45;101754.78;;;25.76;42.27
12247;BME280;6186;52.022;4.692;2023-06-14T08:46:10;101754.56;;;25.79;42.01
12247;BME280;6186;52.022;4.692;2023-06-14T08:48:36;101747.84;;;25.85;42.18
12247;BME280;6186;52.022;4.692;2023-06-14T08:51:02;101759.22;;;26.01;42.20
12247;BME280;6186;52.022;4.692;2023-06-14T08:53:32;101746.78;;;26.11;41.73
12247;BME280;6186;52.022;4.692;2023-06-14T08:55:59;101742.75;;;26.17;41.87
12247;BME280;6186;52.022;4.692;2023-06-14T08:58:25;101747.69;;;26.23;41.23
12247;BME280;6186;52.022;4.692;2023-06-14T09:00:50;101753.09;;;26.23;41.21
12247;BME280;6186;52.022;4.692;2023-06-14T09:03:15;101752.28;;;26.33;41.63
12247;BME280;6186;52.022;4.692;2023-06-14T09:05:40;101756.88;;;26.44;41.38
12247;BME280;6186;52.022;4.692;2023-06-14T09:08:06;101757.63;;;26.57;41.28
12247;BME280;6186;52.022;4.692;2023-06-14T09:10:31;101760.75;;;26.74;41.47
12247;BME280;6186;52.022;4.692;2023-06-14T09:12:57;101751.59;;;26.88;41.23
12247;BME280;6186;52.022;4.692;2023-06-14T09:15:22;101755.91;;;27.02;41.34
12247;BME280;6186;52.022;4.692;2023-06-14T09:17:47;101759.34;;;27.15;41.61
12247;BME280;6186;52.022;4.692;2023-06-14T09:20:13;101758.53;;;27.36;41.17
12247;BME280;6186;52.022;4.692;2023-06-14T09:22:39;101758.38;;;27.49;41.08
12247;BME280;6186;52.022;4.692;2023-06-14T09:25:05;101753.59;;;27.52;40.95
12247;BME280;6186;52.022;4.692;2023-06-14T09:27:32;101763.91;;;27.58;41.23
12247;BME280;6186;52.022;4.692;2023-06-14T09:29:57;101764.13;;;27.77;41.07
12247;BME280;6186;52.022;4.692;2023-06-14T09:32:22;101750.09;;;27.95;40.94
12247;BME280;6186;52.022;4.692;2023-06-14T09:34:48;101754.22;;;28.10;40.73
12247;BME280;6186;52.022;4.692;2023-06-14T09:37:29;101756.56;;;28.14;40.31
12247;BME280;6186;52.022;4.692;2023-06-14T09:39:54;101757.22;;;28.27;40.83
12247;BME280;6186;52.022;4.692;2023-06-14T09:42:20;101773.59;;;28.26;39.77
12247;BME280;6186;52.022;4.692;2023-06-14T09:44:47;101764.19;;;28.09;39.89
12247;BME280;6186;52.022;4.692;2023-06-14T09:47:15;101756.56;;;28.14;40.03
12247;BME280;6186;52.022;4.692;2023-06-14T09:49:40;101758.56;;;28.33;40.43
12247;BME280;6186;52.022;4.692;2023-06-14T09:52:07;101761.19;;;28.55;40.23
12247;BME280;6186;52.022;4.692;2023-06-14T09:54:41;101752.50;;;28.82;40.70
12247;BME280;6186;52.022;4.692;2023-06-14T09:57:07;101754.31;;;29.02;40.47
12247;BME280;6186;52.022;4.692;2023-06-14T09:59:34;101752.16;;;29.16;40.17
12247;BME280;6186;52.022;4.692;2023-06-14T10:02:06;101746.78;;;29.26;39.83
12247;BME280;6186;52.022;4.692;2023-06-14T10:04:33;101763.84;;;29.17;39.88
12247;BME280;6186;52.022;4.692;2023-06-14T10:06:59;101758.00;;;28.91;38.84
12247;BME280;6186;52.022;4.692;2023-06-14T10:09:25;101768.72;;;28.72;38.88
12247;BME280;6186;52.022;4.692;2023-06-14T10:11:51;101763.34;;;28.82;39.22
12247;BME280;6186;52.022;4.692;2023-06-14T10:14:17;101758.28;;;28.98;39.02
12247;BME280;6186;52.022;4.692;2023-06-14T10:19:16;101752.72;;;28.90;38.77
12247;BME280;6186;52.022;4.692;2023-06-14T10:22:01;101753.34;;;29.23;39.04
12247;BME280;6186;52.022;4.692;2023-06-14T10:24:32;101755.81;;;29.36;38.84
12247;BME280;6186;52.022;4.692;2023-06-14T10:26:58;101747.91;;;29.63;38.64
12247;BME280;6186;52.022;4.692;2023-06-14T10:29:24;101747.66;;;29.76;38.50
12247;BME280;6186;52.022;4.692;2023-06-14T10:31:55;101757.69;;;29.94;38.41
12247;BME280;6186;52.022;4.692;2023-06-14T10:34:25;101747.44;;;30.07;38.41
12247;BME280;6186;52.022;4.692;2023-06-14T10:37:04;101748.25;;;29.98;37.84
12247;BME280;6186;52.022;4.692;2023-06-14T10:39:30;101751.84;;;29.99;37.94
12247;BME280;6186;52.022;4.692;2023-06-14T10:41:57;101750.44;;;30.04;37.86
12247;BME280;6186;52.022;4.692;2023-06-14T10:49:51;101758.03;;;30.48;37.90
12247;BME280;6186;52.022;4.692;2023-06-14T10:52:21;101760.19;;;30.64;37.67
12247;BME280;6186;52.022;4.692;2023-06-14T10:57:33;101763.31;;;30.59;37.14
12247;BME280;6186;52.022;4.692;2023-06-14T11:00:03;101759.16;;;30.65;37.38
12247;BME280;6186;52.022;4.692;2023-06-14T11:05:26;101751.22;;;31.00;36.78
12247;BME280;6186;52.022;4.692;2023-06-14T11:10:39;101749.84;;;30.96;36.76
12247;BME280;6186;52.022;4.692;2023-06-14T11:13:06;101744.06;;;31.09;36.40
12247;BME280;6186;52.022;4.692;2023-06-14T11:15:32;101749.78;;;31.06;36.26
12247;BME280;6186;52.022;4.692;2023-06-14T11:18:00;101742.78;;;31.03;35.89
12247;BME280;6186;52.022;4.692;2023-06-14T11:20:27;101743.31;;;31.16;36.39
12247;BME280;6186;52.022;4.692;2023-06-14T11:22:53;101746.91;;;31.44;36.45
12247;BME280;6186;52.022;4.692;2023-06-14T11:25:19;101743.88;;;31.57;36.34
12247;BME280;6186;52.022;4.692;2023-06-14T11:27:45;101745.81;;;31.64;36.07
12247;BME280;6186;52.022;4.692;2023-06-14T11:30:12;101747.38;;;31.67;35.82
12247;BME280;6186;52.022;4.692;2023-06-14T11:32:39;101730.63;;;31.62;35.66
12247;BME280;6186;52.022;4.692;2023-06-14T11:35:05;101740.00;;;31.77;35.59
12247;BME280;6186;52.022;4.692;2023-06-14T11:37:31;101735.97;;;31.81;35.10
12247;BME280;6186;52.022;4.692;2023-06-14T11:39:57;101738.31;;;31.76;35.21
12247;BME280;6186;52.022;4.692;2023-06-14T11:42:22;101723.97;;;31.74;35.05
12247;BME280;6186;52.022;4.692;2023-06-14T11:44:47;101722.16;;;31.92;35.31
12247;BME280;6186;52.022;4.692;2023-06-14T11:47:13;101729.22;;;32.02;34.91
12247;BME280;6186;52.022;4.692;2023-06-14T11:49:38;101732.91;;;31.84;34.36
12247;BME280;6186;52.022;4.692;2023-06-14T11:52:04;101729.09;;;31.77;34.75
12247;BME280;6186;52.022;4.692;2023-06-14T11:54:29;101725.78;;;31.83;34.47
12247;BME280;6186;52.022;4.692;2023-06-14T11:56:54;101730.75;;;31.87;34.48
12247;BME280;6186;52.022;4.692;2023-06-14T11:59:20;101722.53;;;31.97;34.68
12247;BME280;6186;52.022;4.692;2023-06-14T12:01:47;101724.72;;;32.11;34.84
12247;BME280;6186;52.022;4.692;2023-06-14T12:04:13;101739.22;;;32.11;34.35
12247;BME280;6186;52.022;4.692;2023-06-14T12:06:38;101718.66;;;32.17;34.50
12247;BME280;6186;52.022;4.692;2023-06-14T12:09:05;101722.28;;;32.25;34.50
12247;BME280;6186;52.022;4.692;2023-06-14T12:11:35;101723.53;;;32.31;34.51
12247;BME280;6186;52.022;4.692;2023-06-14T12:14:00;101721.91;;;32.38;34.20
12247;BME280;6186;52.022;4.692;2023-06-14T12:16:37;101731.88;;;32.47;34.11
12247;BME280;6186;52.022;4.692;2023-06-14T12:19:13;101727.03;;;32.41;33.47
12247;BME280;6186;52.022;4.692;2023-06-14T12:21:39;101729.56;;;32.17;33.52
12247;BME280;6186;52.022;4.692;2023-06-14T12:24:04;101725.59;;;32.11;33.29
12247;BME280;6186;52.022;4.692;2023-06-14T12:26:30;101729.56;;;32.17;33.73
12247;BME280;6186;52.022;4.692;2023-06-14T12:28:56;101734.91;;;32.26;33.80
12247;BME280;6186;52.022;4.692;2023-06-14T12:31:21;101729.63;;;32.25;33.75
12247;BME280;6186;52.022;4.692;2023-06-14T12:33:46;101736.88;;;32.16;33.43
12247;BME280;6186;52.022;4.692;2023-06-14T12:36:12;101718.72;;;32.07;33.26
12247;BME280;6186;52.022;4.692;2023-06-14T12:38:37;101735.16;;;31.98;32.98
12247;BME280;6186;52.022;4.692;2023-06-14T12:41:03;101730.25;;;32.01;33.29
12247;BME280;6186;52.022;4.692;2023-06-14T12:43:28;101726.28;;;31.96;33.22
12247;BME280;6186;52.022;4.692;2023-06-14T12:45:53;101720.22;;;32.02;33.27
12247;BME280;6186;52.022;4.692;2023-06-14T12:48:19;101729.16;;;32.12;33.47
12247;BME280;6186;52.022;4.692;2023-06-14T12:50:45;101732.81;;;32.03;33.12
12247;BME280;6186;52.022;4.692;2023-06-14T12:53:10;101718.56;;;31.91;32.69
12247;BME280;6186;52.022;4.692;2023-06-14T12:55:36;101720.06;;;31.76;32.93
12247;BME280;6186;52.022;4.692;2023-06-14T12:58:01;101726.00;;;31.89;33.32
12247;BME280;6186;52.022;4.692;2023-06-14T13:00:26;101719.72;;;31.89;32.96
12247;BME280;6186;52.022;4.692;2023-06-14T13:02:51;101730.75;;;31.87;32.81
12247;BME280;6186;52.022;4.692;2023-06-14T13:05:17;101733.03;;;31.92;33.08
12247;BME280;6186;52.022;4.692;2023-06-14T13:07:43;101731.03;;;31.94;32.72
12247;BME280;6186;52.022;4.692;2023-06-14T13:10:08;101724.38;;;31.79;32.48
12247;BME280;6186;52.022;4.692;2023-06-14T13:12:33;101732.53;;;31.79;32.59
12247;BME280;6186;52.022;4.692;2023-06-14T13:14:59;101735.44;;;31.95;32.92